createdAt,value
2022-09-28T00:00:35.608Z,87.50
2022-09-28T00:03:03.268Z,88.63
2022-09-28T00:05:30.943Z,88.34
2022-09-28T00:07:59.938Z,88.68
2022-09-28T00:10:27.547Z,88.95
2022-09-28T00:12:56.260Z,89.03
2022-09-28T00:15:24.652Z,89.49
2022-09-28T00:17:52.207Z,89.92
2022-09-28T00:20:20.454Z,90.58
2022-09-28T00:22:48.267Z,90.37
2022-09-28T00:25:17.694Z,90.48
2022-09-28T00:27:50.910Z,90.41
2022-09-28T00:30:18.495Z,90.75
2022-09-28T00:32:46.114Z,91.29
2022-09-28T00:35:13.716Z,91.74
2022-09-28T00:37:41.299Z,91.93
2022-09-28T00:40:09.643Z,91.58
2022-09-28T00:42:38.628Z,92.82
2022-09-28T00:45:08.647Z,92.81
2022-09-28T00:47:43.503Z,92.48
2022-09-28T00:50:23.840Z,92.81
2022-09-28T00:52:56.747Z,92.88
2022-09-28T00:55:32.614Z,93.21
2022-09-28T00:58:05.007Z,93.07
2022-09-28T01:00:32.923Z,92.65
2022-09-28T01:03:00.686Z,92.31
2022-09-28T01:05:28.662Z,92.67
2022-09-28T01:07:57.683Z,92.88
2022-09-28T01:10:26.020Z,92.35
2022-09-28T01:12:53.639Z,92.94
2022-09-28T01:15:24.647Z,92.92
2022-09-28T01:18:06.087Z,93.09
2022-09-28T01:20:56.125Z,93.04
2022-09-28T01:24:17.852Z,93.58
2022-09-28T01:27:05.801Z,93.33
2022-09-28T01:29:43.733Z,92.64
2022-09-28T01:32:24.932Z,93.03
2022-09-28T01:34:59.499Z,93.28
2022-09-28T01:37:36.630Z,92.30
2022-09-28T01:40:08.121Z,92.19
2022-09-28T01:42:40.557Z,92.18
2022-09-28T01:45:15.609Z,92.41
2022-09-28T01:47:47.085Z,91.96
2022-09-28T01:50:18.393Z,92.17
2022-09-28T01:52:51.422Z,92.66
2022-09-28T01:55:26.870Z,92.73
2022-09-28T01:57:59.228Z,92.63
2022-09-28T02:00:28.766Z,93.28
2022-09-28T02:03:02.884Z,92.89
2022-09-28T02:05:33.902Z,92.18
2022-09-28T02:08:06.704Z,91.42
2022-09-28T02:10:39.587Z,91.07
2022-09-28T02:13:14.542Z,90.64
2022-09-28T02:15:46.788Z,90.08
2022-09-28T02:18:14.593Z,90.01
2022-09-28T02:20:47.728Z,89.58
2022-09-28T02:23:17.271Z,88.70
2022-09-28T02:25:50.000Z,88.68
2022-09-28T02:28:19.086Z,89.57
2022-09-28T02:30:47.044Z,88.99
2022-09-28T02:33:19.651Z,88.70
2022-09-28T02:35:47.855Z,88.79
2022-09-28T02:38:16.513Z,87.63
2022-09-28T02:40:49.085Z,87.20
2022-09-28T02:43:25.605Z,86.54
2022-09-28T02:46:02.207Z,85.37
2022-09-28T02:48:52.255Z,85.06
2022-09-28T02:51:39.324Z,84.64
2022-09-28T02:54:32.026Z,84.36
2022-09-28T02:57:13.088Z,85.08
2022-09-28T02:59:54.708Z,84.50
2022-09-28T03:02:29.164Z,85.09
2022-09-28T03:05:08.348Z,84.77
2022-09-28T03:07:40.210Z,84.43
2022-09-28T03:10:17.613Z,84.79
2022-09-28T03:12:48.182Z,84.94
2022-09-28T03:15:23.404Z,84.64
2022-09-28T03:17:51.105Z,84.35
2022-09-28T03:20:19.224Z,84.28
2022-09-28T03:23:06.077Z,84.41
2022-09-28T03:25:35.226Z,84.58
2022-09-28T03:28:02.881Z,85.05
2022-09-28T03:30:31.846Z,85.21
2022-09-28T03:33:00.155Z,85.38
2022-09-28T03:35:27.810Z,85.40
2022-09-28T03:37:57.000Z,85.16
2022-09-28T03:40:25.054Z,84.80
2022-09-28T03:42:53.912Z,84.43
2022-09-28T03:45:21.646Z,84.23
2022-09-28T03:47:50.608Z,84.32
2022-09-28T03:50:18.206Z,84.32
2022-09-28T03:52:45.796Z,84.84
2022-09-28T03:55:13.494Z,85.47
2022-09-28T03:57:41.076Z,85.19
2022-09-28T04:00:10.178Z,85.34
2022-09-28T04:02:37.837Z,85.13
2022-09-28T04:05:07.385Z,84.54
2022-09-28T04:07:35.011Z,84.51
2022-09-28T04:10:02.679Z,84.21
2022-09-28T04:12:30.289Z,84.21
2022-09-28T04:14:57.878Z,83.87
2022-09-28T04:17:25.553Z,84.13
2022-09-28T04:19:53.146Z,84.41
2022-09-28T04:22:23.283Z,84.17
2022-09-28T04:24:50.878Z,83.77
2022-09-28T04:27:36.297Z,83.73
2022-09-28T04:30:04.823Z,83.90
2022-09-28T04:32:32.537Z,83.56
2022-09-28T04:35:00.220Z,83.93
2022-09-28T04:37:31.276Z,84.04
2022-09-28T04:39:58.907Z,83.13
2022-09-28T04:42:26.500Z,83.52
2022-09-28T04:44:55.395Z,82.84
2022-09-28T04:47:22.926Z,82.20
2022-09-28T04:49:50.518Z,83.43
2022-09-28T04:52:18.749Z,83.72
2022-09-28T04:54:47.850Z,83.47
2022-09-28T04:57:15.484Z,83.60
2022-09-28T04:59:43.042Z,83.74
2022-09-28T05:02:10.764Z,83.67
2022-09-28T05:04:38.363Z,84.34
2022-09-28T05:07:06.167Z,83.87
2022-09-28T05:09:37.676Z,83.60
2022-09-28T05:12:09.344Z,83.36
2022-09-28T05:14:36.918Z,83.90
2022-09-28T05:17:04.531Z,83.98
2022-09-28T05:19:33.404Z,83.58
2022-09-28T05:22:04.010Z,82.58
2022-09-28T05:24:31.867Z,82.97
2022-09-28T05:26:59.472Z,83.06
2022-09-28T05:29:32.080Z,83.36
2022-09-28T05:32:01.684Z,83.89
2022-09-28T05:34:29.627Z,84.09
2022-09-28T05:36:57.260Z,83.48
2022-09-28T05:39:25.045Z,83.16
2022-09-28T05:41:52.687Z,82.55
2022-09-28T05:44:20.261Z,82.16
2022-09-28T05:46:49.222Z,82.29
2022-09-28T05:49:16.820Z,81.73
2022-09-28T05:51:44.506Z,82.11
2022-09-28T05:54:12.289Z,82.30
2022-09-28T05:56:39.850Z,82.01
2022-09-28T05:59:07.518Z,82.05
2022-09-28T06:01:35.227Z,81.76
2022-09-28T06:04:04.252Z,81.11
2022-09-28T06:06:31.893Z,80.92
2022-09-28T06:08:59.514Z,81.58
2022-09-28T06:11:27.776Z,81.46
2022-09-28T06:13:56.297Z,81.01
2022-09-28T06:16:24.170Z,80.53
2022-09-28T06:18:51.761Z,80.13
2022-09-28T06:21:20.696Z,80.15
2022-09-28T06:23:49.413Z,79.86
2022-09-28T06:26:17.778Z,79.84
2022-09-28T06:28:45.492Z,79.71
2022-09-28T06:31:13.267Z,79.95
2022-09-28T06:33:41.982Z,79.18
2022-09-28T06:36:10.397Z,78.94
2022-09-28T06:38:39.369Z,79.48
2022-09-28T06:41:07.298Z,79.61
2022-09-28T06:43:34.974Z,79.26
2022-09-28T06:46:03.397Z,79.57
2022-09-28T06:48:33.433Z,78.75
2022-09-28T06:51:01.802Z,76.86
2022-09-28T06:53:30.392Z,76.68
2022-09-28T06:55:59.833Z,76.51
2022-09-28T06:58:28.158Z,76.62
2022-09-28T07:00:59.532Z,76.57
2022-09-28T07:03:28.159Z,76.30
2022-09-28T07:05:57.553Z,75.73
2022-09-28T07:08:26.431Z,75.69
2022-09-28T07:10:56.414Z,75.64
2022-09-28T07:13:48.785Z,75.33
2022-09-28T07:16:14.444Z,75.62
2022-09-28T07:18:42.266Z,75.94
2022-09-28T07:21:17.768Z,75.63
2022-09-28T07:23:53.870Z,75.32
2022-09-28T07:26:24.335Z,75.27
2022-09-28T07:28:55.882Z,74.92
2022-09-28T07:31:25.182Z,75.09
2022-09-28T07:33:53.838Z,73.80
2022-09-28T07:36:22.652Z,73.79
2022-09-28T07:38:50.407Z,74.29
2022-09-28T07:41:22.521Z,75.58
2022-09-28T07:43:50.849Z,75.59
2022-09-28T07:46:21.745Z,73.74
2022-09-28T07:48:49.834Z,73.27
2022-09-28T07:51:20.597Z,73.29
2022-09-28T07:53:49.020Z,73.16
2022-09-28T07:56:18.209Z,73.96
2022-09-28T07:58:48.566Z,74.94
2022-09-28T08:01:16.997Z,73.76
2022-09-28T08:03:47.849Z,72.32
2022-09-28T08:06:17.621Z,71.03
2022-09-28T08:08:45.564Z,69.80
2022-09-28T08:11:14.616Z,69.94
2022-09-28T08:13:43.533Z,70.13
2022-09-28T08:16:11.223Z,69.75
2022-09-28T08:18:38.911Z,69.38
2022-09-28T08:21:25.560Z,69.68
2022-09-28T08:23:53.813Z,68.71
2022-09-28T08:26:21.674Z,68.65
2022-09-28T08:28:49.260Z,68.08
2022-09-28T08:31:17.025Z,67.57
2022-09-28T08:33:44.713Z,67.07
2022-09-28T08:36:13.687Z,65.56
2022-09-28T08:38:41.266Z,61.25
2022-09-28T08:41:19.927Z,59.13
2022-09-28T08:44:02.467Z,57.07
2022-09-28T08:46:34.599Z,54.06
2022-09-28T08:49:25.654Z,47.34
2022-09-28T08:52:01.882Z,47.00
2022-09-28T08:54:38.957Z,47.21
2022-09-28T08:57:12.122Z,48.30
2022-09-28T08:59:47.801Z,45.64
2022-09-28T09:02:19.898Z,45.12
2022-09-28T09:04:48.084Z,47.91
2022-09-28T09:07:33.239Z,44.22
2022-09-28T09:10:13.669Z,43.86
2022-09-28T09:12:50.974Z,42.00
2022-09-28T09:15:28.495Z,40.87
2022-09-28T09:18:10.814Z,42.53
2022-09-28T09:20:46.650Z,44.42
2022-09-28T09:23:20.267Z,45.59
2022-09-28T09:25:54.810Z,47.66
2022-09-28T09:28:40.140Z,49.19
2022-09-28T09:31:24.128Z,50.19
2022-09-28T09:34:16.029Z,51.23
2022-09-28T09:37:00.510Z,50.85
2022-09-28T09:39:42.196Z,52.46
2022-09-28T09:42:26.918Z,53.48
2022-09-28T09:45:09.432Z,54.39
2022-09-28T09:47:42.954Z,55.16
2022-09-28T09:50:19.648Z,55.35
2022-09-28T09:52:57.176Z,55.96
2022-09-28T09:55:30.251Z,55.26
2022-09-28T09:58:06.018Z,55.08
2022-09-28T10:00:34.753Z,53.88
2022-09-28T10:03:03.234Z,53.58
2022-09-28T10:05:33.297Z,53.29
2022-09-28T10:08:04.418Z,50.69
2022-09-28T10:10:36.487Z,51.39
2022-09-28T10:13:04.765Z,50.96
2022-09-28T10:15:35.228Z,51.15
2022-09-28T10:18:07.554Z,50.85
2022-09-28T10:20:39.872Z,51.57
2022-09-28T10:23:14.435Z,51.39
2022-09-28T10:25:47.066Z,50.80
2022-09-28T10:28:20.286Z,50.24
2022-09-28T10:30:48.034Z,49.93
2022-09-28T10:33:36.499Z,49.53
2022-09-28T10:36:08.361Z,50.01
2022-09-28T10:38:36.309Z,49.81
2022-09-28T10:41:11.230Z,49.59
2022-09-28T10:43:40.798Z,50.24
2022-09-28T10:46:10.681Z,47.70
2022-09-28T10:48:51.337Z,48.11
2022-09-28T10:51:19.285Z,47.91
2022-09-28T10:54:00.421Z,49.16
2022-09-28T10:56:32.762Z,49.78
2022-09-28T10:59:00.371Z,49.01
2022-09-28T11:01:34.686Z,48.00
2022-09-28T11:04:04.092Z,49.17
2022-09-28T11:06:36.741Z,48.70
2022-09-28T11:09:06.860Z,49.53
2022-09-28T11:11:43.029Z,49.85
2022-09-28T11:14:27.183Z,48.35
2022-09-28T11:17:16.436Z,51.12
2022-09-28T11:19:44.489Z,50.72
2022-09-28T11:22:22.552Z,51.67
2022-09-28T11:24:50.537Z,51.95
2022-09-28T11:27:25.046Z,51.83
2022-09-28T11:29:58.071Z,52.85
2022-09-28T11:32:29.638Z,53.70
2022-09-28T11:37:54.552Z,52.21
2022-09-28T11:40:30.457Z,53.76
2022-09-28T11:43:12.253Z,53.92
2022-09-28T11:45:52.893Z,53.24
2022-09-28T11:48:26.514Z,53.52
2022-09-28T11:50:59.379Z,52.38
2022-09-28T11:53:34.252Z,52.75
2022-09-28T11:56:09.737Z,53.61
2022-09-28T11:58:43.948Z,54.75
2022-09-28T12:01:23.511Z,53.90
2022-09-28T12:03:55.956Z,53.28
2022-09-28T12:06:31.109Z,52.89
2022-09-28T12:09:09.250Z,52.83
2022-09-28T12:11:40.122Z,52.54
2022-09-28T12:14:19.734Z,52.27
2022-09-28T12:17:06.029Z,52.56
2022-09-28T12:19:39.789Z,52.57
2022-09-28T12:22:18.178Z,51.62
2022-09-28T12:24:48.479Z,50.48
2022-09-28T12:27:22.530Z,49.66
2022-09-28T12:29:58.685Z,49.03
2022-09-28T12:32:32.377Z,48.55
2022-09-28T12:34:59.986Z,49.06
2022-09-28T12:37:45.378Z,49.47
2022-09-28T12:40:33.626Z,49.20
2022-09-28T12:43:20.069Z,48.80
2022-09-28T12:46:12.672Z,47.88
2022-09-28T12:49:36.781Z,48.29
2022-09-28T12:51:49.489Z,49.07
2022-09-28T12:54:53.201Z,50.49
2022-09-28T12:57:37.034Z,49.11
2022-09-28T13:00:10.091Z,48.85
2022-09-28T13:03:19.034Z,48.99
2022-09-28T13:06:16.771Z,48.58
2022-09-28T13:08:55.218Z,49.81
2022-09-28T13:11:33.077Z,50.38
2022-09-28T13:14:20.825Z,49.95
2022-09-28T13:17:00.404Z,49.27
2022-09-28T13:19:38.345Z,49.50
2022-09-28T13:22:19.339Z,49.42
2022-09-28T13:24:48.288Z,49.45
2022-09-28T13:27:19.963Z,50.30
2022-09-28T13:29:51.130Z,49.47
2022-09-28T13:32:19.736Z,50.38
2022-09-28T13:34:51.455Z,50.67
2022-09-28T13:37:24.150Z,50.28
2022-09-28T13:39:55.080Z,52.19
2022-09-28T13:42:41.700Z,51.55
2022-09-28T13:45:39.012Z,52.20
2022-09-28T13:48:16.934Z,53.22
2022-09-28T13:51:03.719Z,52.81
2022-09-28T13:53:43.621Z,52.99
2022-09-28T13:56:25.459Z,53.69
2022-09-28T13:58:59.497Z,52.95
2022-09-28T14:01:31.377Z,51.45
2022-09-28T14:04:14.811Z,52.24
2022-09-28T14:06:48.725Z,51.81
2022-09-28T14:09:43.580Z,52.11
2022-09-28T14:12:45.128Z,51.33
2022-09-28T14:15:42.548Z,52.99
2022-09-28T14:18:24.467Z,52.26
2022-09-28T14:21:04.016Z,51.50
2022-09-28T14:23:58.990Z,49.26
2022-09-28T14:26:59.863Z,50.24
2022-09-28T14:29:29.385Z,47.92
2022-09-28T14:31:58.663Z,48.63
2022-09-28T14:34:35.125Z,49.92
2022-09-28T14:37:22.472Z,50.64
2022-09-28T14:40:09.490Z,51.06
2022-09-28T14:42:37.162Z,49.79
2022-09-28T14:45:38.257Z,49.89
2022-09-28T14:48:15.238Z,48.13
2022-09-28T14:50:42.983Z,50.14
2022-09-28T14:53:13.965Z,48.59
2022-09-28T14:55:51.294Z,49.74
2022-09-28T14:58:22.602Z,49.24
2022-09-28T15:01:03.673Z,49.45
2022-09-28T15:03:34.457Z,49.18
2022-09-28T15:06:02.695Z,50.72
2022-09-28T15:08:38.771Z,51.65
2022-09-28T15:11:14.658Z,51.77
2022-09-28T15:13:43.494Z,50.97
2022-09-28T15:16:14.015Z,50.38
2022-09-28T15:19:13.306Z,52.22
2022-09-28T15:21:43.313Z,52.28
2022-09-28T15:24:25.755Z,50.84
2022-09-28T15:26:54.952Z,50.22
2022-09-28T15:29:23.849Z,50.93
2022-09-28T15:31:54.501Z,52.24
2022-09-28T15:34:48.351Z,51.05
2022-09-28T15:37:22.074Z,51.77
2022-09-28T15:39:51.363Z,51.87
2022-09-28T15:42:20.783Z,53.40
2022-09-28T15:45:08.145Z,54.34
2022-09-28T15:47:40.049Z,53.12
2022-09-28T15:50:20.859Z,53.34
2022-09-28T15:52:56.299Z,53.95
2022-09-28T15:55:27.840Z,53.47
2022-09-28T15:58:18.179Z,54.32
2022-09-28T16:00:47.073Z,53.03
2022-09-28T16:03:23.954Z,54.21
2022-09-28T16:05:53.577Z,54.23
2022-09-28T16:08:24.747Z,53.23
2022-09-28T16:11:04.009Z,53.92
2022-09-28T16:13:34.135Z,53.43
2022-09-28T16:16:02.252Z,54.62
2022-09-28T16:18:31.105Z,53.99
2022-09-28T16:21:24.204Z,52.46
2022-09-28T16:23:52.859Z,52.96
2022-09-28T16:26:32.098Z,55.01
2022-09-28T16:29:06.818Z,55.37
2022-09-28T16:31:34.689Z,55.76
2022-09-28T16:34:11.864Z,56.39
2022-09-28T16:36:45.403Z,54.58
2022-09-28T16:39:14.121Z,55.28
2022-09-28T16:41:44.740Z,55.08
2022-09-28T16:44:20.351Z,55.31
2022-09-28T16:46:48.181Z,56.38
2022-09-28T16:49:20.684Z,56.89
2022-09-28T16:51:48.832Z,57.13
2022-09-28T16:54:36.486Z,56.79
2022-09-28T16:57:06.092Z,56.99
2022-09-28T16:59:38.370Z,56.31
2022-09-28T17:02:35.282Z,56.21
2022-09-28T17:05:07.015Z,56.69
2022-09-28T17:07:34.990Z,57.49
2022-09-28T17:10:03.928Z,57.09
2022-09-28T17:12:31.795Z,56.88
2022-09-28T17:15:01.036Z,56.35
2022-09-28T17:17:31.307Z,57.72
2022-09-28T17:19:58.976Z,56.92
2022-09-28T17:22:26.650Z,57.50
2022-09-28T17:24:54.215Z,57.35
2022-09-28T17:27:21.980Z,57.04
2022-09-28T17:29:49.589Z,56.83
2022-09-28T17:32:20.143Z,56.12
2022-09-28T17:34:55.973Z,56.39
2022-09-28T17:37:36.084Z,56.60
2022-09-28T17:40:03.687Z,57.30
2022-09-28T17:42:31.246Z,56.98
2022-09-28T17:44:58.836Z,56.29
2022-09-28T17:47:31.005Z,56.11
2022-09-28T17:50:01.714Z,56.84
2022-09-28T17:52:29.367Z,56.72
2022-09-28T17:54:56.976Z,56.41
2022-09-28T17:57:24.543Z,56.62
2022-09-28T17:59:52.153Z,56.73
2022-09-28T18:02:19.933Z,57.03
2022-09-28T18:04:52.065Z,57.14
2022-09-28T18:07:20.000Z,57.37
2022-09-28T18:09:47.633Z,57.47
2022-09-28T18:12:16.984Z,57.36
2022-09-28T18:14:44.618Z,57.69
2022-09-28T18:17:12.159Z,57.95
2022-09-28T18:19:39.720Z,58.02
2022-09-28T18:22:08.765Z,57.99
2022-09-28T18:24:36.329Z,58.34
2022-09-28T18:27:03.930Z,58.02
2022-09-28T18:29:33.535Z,58.53
2022-09-28T18:32:02.371Z,58.83
2022-09-28T18:34:29.914Z,58.52
2022-09-28T18:36:57.528Z,58.09
2022-09-28T18:39:26.643Z,57.86
2022-09-28T18:41:54.278Z,58.06
2022-09-28T18:44:22.088Z,57.76
2022-09-28T18:46:51.446Z,57.75
2022-09-28T18:49:19.158Z,57.71
2022-09-28T18:51:46.851Z,57.52
2022-09-28T18:54:17.430Z,57.83
2022-09-28T18:56:46.462Z,57.94
2022-09-28T18:59:14.851Z,58.17
2022-09-28T19:01:43.217Z,58.32
2022-09-28T19:04:11.877Z,58.24
2022-09-28T19:06:41.454Z,58.79
2022-09-28T19:09:09.609Z,59.54
2022-09-28T19:11:37.438Z,60.15
2022-09-28T19:14:06.459Z,60.58
2022-09-28T19:16:34.595Z,60.76
2022-09-28T19:19:03.031Z,61.27
2022-09-28T19:21:34.812Z,61.82
2022-09-28T19:24:03.944Z,61.59
2022-09-28T19:26:32.994Z,61.53
2022-09-28T19:29:02.080Z,62.00
2022-09-28T19:31:31.654Z,61.73
2022-09-28T19:33:59.848Z,61.46
2022-09-28T19:36:29.370Z,61.63
2022-09-28T19:38:58.467Z,61.38
2022-09-28T19:41:44.915Z,61.89
2022-09-28T19:44:15.565Z,62.34
2022-09-28T19:46:44.888Z,62.62
2022-09-28T19:49:13.847Z,62.83
2022-09-28T19:52:01.721Z,62.78
2022-09-28T19:54:36.304Z,62.99
2022-09-28T19:57:07.322Z,63.61
2022-09-28T19:59:35.610Z,63.54
2022-09-28T20:02:05.088Z,63.89
2022-09-28T20:04:32.646Z,64.55
2022-09-28T20:07:00.309Z,64.81
2022-09-28T20:09:27.880Z,64.61
2022-09-28T20:11:55.494Z,64.53
2022-09-28T20:14:24.665Z,64.95
2022-09-28T20:16:55.843Z,65.46
2022-09-28T20:19:24.797Z,65.74
2022-09-28T20:21:52.363Z,65.97
2022-09-28T20:24:19.923Z,65.71
2022-09-28T20:26:49.500Z,65.89
2022-09-28T20:29:17.435Z,66.23
2022-09-28T20:31:45.572Z,66.69
2022-09-28T20:34:13.253Z,66.82
2022-09-28T20:36:44.596Z,66.83
2022-09-28T20:39:13.128Z,66.38
2022-09-28T20:41:41.131Z,66.46
2022-09-28T20:44:09.539Z,66.89
2022-09-28T20:46:37.300Z,67.04
2022-09-28T20:49:07.035Z,66.93
2022-09-28T20:51:34.669Z,67.12
2022-09-28T20:54:03.607Z,67.47
2022-09-28T20:56:37.443Z,67.43
2022-09-28T20:59:05.777Z,67.61
2022-09-28T21:01:33.616Z,68.19
2022-09-28T21:04:03.085Z,68.56
2022-09-28T21:06:33.177Z,69.05
2022-09-28T21:09:00.806Z,69.44
2022-09-28T21:11:30.590Z,69.70
2022-09-28T21:13:59.866Z,69.75
2022-09-28T21:16:30.106Z,69.23
2022-09-28T21:18:58.352Z,69.96
2022-09-28T21:21:26.761Z,70.57
2022-09-28T21:23:54.591Z,70.56
2022-09-28T21:26:25.581Z,71.14
2022-09-28T21:28:55.524Z,71.11
2022-09-28T21:31:29.065Z,71.14
2022-09-28T21:33:57.601Z,71.17
2022-09-28T21:36:25.498Z,71.26
2022-09-28T21:38:54.156Z,71.02
2022-09-28T21:41:21.887Z,70.74
2022-09-28T21:43:49.449Z,70.97
2022-09-28T21:46:18.560Z,70.64
2022-09-28T21:48:46.312Z,70.25
2022-09-28T21:51:15.626Z,69.92
2022-09-28T21:53:43.563Z,70.08
2022-09-28T21:56:13.571Z,69.76
2022-09-28T21:58:41.576Z,69.56
2022-09-28T22:01:12.062Z,70.02
2022-09-28T22:03:42.082Z,69.90
2022-09-28T22:06:10.094Z,69.48
2022-09-28T22:08:38.286Z,69.20
2022-09-28T22:11:07.763Z,69.52
2022-09-28T22:13:36.877Z,69.55
2022-09-28T22:16:04.520Z,69.59
2022-09-28T22:18:33.971Z,69.75
2022-09-28T22:21:06.424Z,69.84
2022-09-28T22:23:35.210Z,69.91
2022-09-28T22:26:05.107Z,69.47
2022-09-28T22:28:32.765Z,70.17
2022-09-28T22:31:01.929Z,70.41
2022-09-28T22:33:29.542Z,70.52
2022-09-28T22:35:57.277Z,70.55
2022-09-28T22:38:26.197Z,70.81
2022-09-28T22:40:56.220Z,71.22
2022-09-28T22:43:25.059Z,71.77
2022-09-28T22:46:01.948Z,71.05
2022-09-28T22:48:29.723Z,70.27
2022-09-28T22:50:57.285Z,69.82
2022-09-28T22:53:26.759Z,70.03
2022-09-28T22:55:54.353Z,69.83
2022-09-28T22:58:22.123Z,70.26
2022-09-28T23:00:49.738Z,71.17
2022-09-28T23:03:18.055Z,71.17
2022-09-28T23:05:53.936Z,71.54
2022-09-28T23:08:21.751Z,71.72
2022-09-28T23:10:51.360Z,71.89
2022-09-28T23:13:19.383Z,72.04
2022-09-28T23:15:55.959Z,71.85
2022-09-28T23:18:23.698Z,71.55
2022-09-28T23:20:55.059Z,72.04
2022-09-28T23:23:23.536Z,72.06
2022-09-28T23:25:53.540Z,71.81
2022-09-28T23:28:22.257Z,71.03
2022-09-28T23:30:50.433Z,70.05
2022-09-28T23:33:20.267Z,71.17
2022-09-28T23:35:48.031Z,71.96
2022-09-28T23:38:18.655Z,71.94
2022-09-28T23:40:47.298Z,71.13
2022-09-28T23:43:16.384Z,71.30
2022-09-28T23:45:44.531Z,70.87
2022-09-28T23:48:14.984Z,70.48
2022-09-28T23:50:43.155Z,70.25
2022-09-28T23:53:11.731Z,69.70
2022-09-28T23:55:39.306Z,69.69
2022-09-28T23:58:07.245Z,69.48
